Flight Track Log - Related Links

Times and Time Zones

All times are in EDT time to prevent confusion due to time zone crossing. See the SWA987 flight status page for this flight to view local times or setup timezone preferences in your user account.

Time Position Orientation Groundspeed Altitude Reporting Facility
EDT Latitude Longitude Course Direction KTS MPH feet Rate Location/Type
Wed 12:55:28 AM 37.3833 -121.9500 322° Northwest 147 169 1,400  Level Northern Cal TRACON
Wed 12:56:28 AM 37.4167 -121.9833 322° Northwest 199 229 4,100 1,800 Climbing Northern Cal TRACON
Wed 12:57:28 AM 37.4333 -121.9167 73° East 232 267 5,000 950 Climbing Northern Cal TRACON
Wed 12:58:28 AM 37.3833 -121.8667 142° Southeast 233 268 6,000 1,794 Climbing Northern Cal TRACON
Wed 12:59:15 AM 37.3592 -121.8239 125° Southeast 233 268 8,200 2,833 Climbing Oakland Center
Wed 01:00:16 AM 37.2997 -121.7586 139° Southeast 282 325 11,100 3,246 Climbing Oakland Center
Wed 01:01:17 AM 37.2275 -121.6736 137° Southeast 343 395 14,800 3,719 Climbing Oakland Center
Wed 01:02:17 AM 37.1494 -121.5869 138° Southeast 367 422 18,600 3,521 Climbing Oakland Center
Wed 01:03:18 AM 37.0653 -121.4936 138° Southeast 391 450 21,900 3,049 Climbing Oakland Center
Wed 01:04:19 AM 36.9789 -121.4008 139° Southeast 404 465 24,800 2,902 Climbing Oakland Center
Wed 01:05:20 AM 36.8708 -121.2817 139° Southeast 430 495 27,800 2,607 Climbing Oakland Center
Wed 01:06:21 AM 36.7733 -121.1803 140° Southeast 444 511 30,100 2,164 Climbing Oakland Center
Wed 01:07:22 AM 36.6783 -121.0764 139° Southeast 452 520 32,200 2,213 Climbing Oakland Center
Wed 01:08:23 AM 36.5803 -120.9731 140° Southeast 460 529 34,600 2,164 Climbing Oakland Center
Wed 01:09:24 AM 36.4867 -120.8681 138° Southeast 455 524 36,600 1,525 Climbing Oakland Center
Wed 01:10:25 AM 36.3975 -120.7594 136° Southeast 449 517 37,700 1,082 Climbing Oakland Center
Wed 01:11:26 AM 36.3181 -120.6286 127° Southeast 467 537 38,800 1,131 Climbing Oakland Center
Wed 01:12:27 AM 36.2347 -120.4994 129° Southeast 476 548 40,000 992 Climbing Oakland Center
Wed 01:13:27 AM 36.1519 -120.3675 128° Southeast 482 555 40,800 496 Climbing Oakland Center
Wed 01:14:28 AM 36.0669 -120.2339 128° Southeast 487 560 41,000 98 Climbing Oakland Center
Wed 01:15:29 AM 35.9828 -120.1033 129° Southeast 487 560 41,000  Level Oakland Center
Wed 01:16:30 AM 35.8969 -119.9689 128° Southeast 492 566 41,000  Level Oakland Center
Wed 01:17:31 AM 35.8122 -119.8353 128° Southeast 492 566 41,000  Level Oakland Center
Wed 01:18:32 AM 35.7467 -119.6817 118° Southeast 498 573 41,000  Level Oakland Center
Wed 01:19:33 AM 35.6847 -119.5261 116° Southeast 500 575 41,000  Level Oakland Center
Wed 01:20:34 AM 35.6225 -119.3717 116° Southeast 502 578 41,000  Level Oakland Center
Wed 01:21:34 AM 35.5589 -119.2172 117° Southeast 503 579 41,000  Level Oakland Center
Wed 01:22:35 AM 35.4947 -119.0631 117° Southeast 503 579 41,000  Level Oakland Center
Wed 01:23:36 AM 35.4300 -118.9083 117° Southeast 508 585 41,000  Level Oakland Center
Wed 01:24:37 AM 35.3536 -118.7233 117° Southeast 508 585 41,000  Level Oakland Center
Wed 01:25:49 AM 35.2869 -118.5672 118° Southeast 507 583 41,000  Level Los Angeles Center
Wed 01:26:50 AM 35.2178 -118.4008 117° Southeast 511 588 41,000  Level Los Angeles Center
Wed 01:27:51 AM 35.1531 -118.2464 117° Southeast 512 589 41,000  Level Los Angeles Center
Wed 01:28:52 AM 35.0864 -118.0928 118° Southeast 513 590 41,000  Level Los Angeles Center
Wed 01:29:53 AM 35.0200 -117.9386 118° Southeast 515 593 41,000  Level Los Angeles Center
Wed 01:30:54 AM 34.9406 -117.7533 118° Southeast 523 602 41,000  Level Los Angeles Center
Wed 01:31:54 AM 34.8742 -117.5992 118° Southeast 525 604 41,000  Level Los Angeles Center
Wed 01:32:55 AM 34.8078 -117.4450 118° Southeast 523 602 41,000  Level Los Angeles Center
Wed 01:33:56 AM 34.7386 -117.2881 118° Southeast 527 606 41,000  Level Los Angeles Center
Wed 01:34:57 AM 34.6697 -117.1317 118° Southeast 528 608 41,000  Level Los Angeles Center
Wed 01:35:58 AM 34.6014 -116.9756 118° Southeast 528 608 41,000  Level Los Angeles Center
Wed 01:36:59 AM 34.5514 -116.8094 110° East 526 605 41,000  Level Los Angeles Center
Wed 01:38:00 AM 34.5156 -116.6378 104° East 527 606 41,000  Level Los Angeles Center
Wed 01:39:01 AM 34.4703 -116.4322 105° East 527 606 41,000  Level Los Angeles Center
Wed 01:40:02 AM 34.4353 -116.2606 104° East 526 605 41,000  Level Los Angeles Center
Wed 01:41:03 AM 34.3994 -116.0883 104° East 531 611 41,000  Level Los Angeles Center
Wed 01:42:04 AM 34.3619 -115.9147 105° East 531 611 41,000  Level Los Angeles Center
Wed 01:43:05 AM 34.3231 -115.7372 105° East 531 611 41,000  Level Los Angeles Center
Wed 01:44:05 AM 34.2844 -115.5661 105° East 530 610 41,000  Level Los Angeles Center
Wed 01:45:06 AM 34.2478 -115.3967 105° East 524 603 41,000  Level Los Angeles Center
Wed 01:46:07 AM 34.2089 -115.2269 105° East 524 603 41,000  Level Los Angeles Center
Wed 01:47:08 AM 34.1703 -115.0558 105° East 524 603 41,000  Level Los Angeles Center
Wed 01:48:09 AM 34.1308 -114.8833 105° East 526 605 41,000  Level Los Angeles Center
Wed 01:49:10 AM 34.0925 -114.7117 105° East 529 609 41,000  Level Los Angeles Center
Wed 01:50:11 AM 34.0553 -114.5408 105° East 529 609 41,000  Level Los Angeles Center
Wed 01:51:12 AM 34.0144 -114.3694 106° East 529 609 41,000  Level Los Angeles Center
Wed 01:52:12 AM 33.9739 -114.1969 106° East 530 610 41,000  Level Los Angeles Center
Wed 01:53:13 AM 33.9336 -114.0253 106° East 534 615 41,000  Level Los Angeles Center
Wed 01:54:14 AM 33.8833 -113.8481 109° East 550 633 41,000  Level Los Angeles Center
Wed 01:55:15 AM 33.8419 -113.6781 106° East 541 623 41,000  Level Los Angeles Center
Wed 01:56:16 AM 33.7928 -113.4728 106° East 557 641 41,000  Level Los Angeles Center
Wed 01:57:16 AM 33.7608 -113.3056 103° East 531 611 41,000  Level Los Angeles Center
Wed 01:58:38 AM 33.7131 -113.1108 106° East 534 615 41,000  Level Albuquerque Center
Wed 01:59:38 AM 33.6703 -112.9403 107° East 534 615 41,000  Level Albuquerque Center
Wed 02:00:38 AM 33.6250 -112.7550 106° East 534 615 41,000  Level Albuquerque Center
Wed 02:01:36 AM 33.5789 -112.5661 106° East 536 617 41,000  Level Albuquerque Center
Wed 02:02:37 AM 33.5358 -112.3981 107° East 533 613 41,000  Level Albuquerque Center
Wed 02:03:38 AM 33.4936 -112.2300 107° East 532 612 41,000  Level Albuquerque Center
Wed 02:04:38 AM 33.4514 -112.0625 107° East 533 613 41,000  Level Albuquerque Center
Wed 02:05:40 AM 33.4092 -111.8972 107° East 531 611 41,000  Level Albuquerque Center
Wed 02:06:39 AM 33.3656 -111.7306 107° East 531 611 41,000  Level Albuquerque Center
Wed 02:07:40 AM 33.3228 -111.5631 107° East 531 611 41,000  Level Albuquerque Center
Wed 02:08:41 AM 33.2794 -111.3969 107° East 531 611 41,000  Level Albuquerque Center
Wed 02:09:41 AM 33.2356 -111.2292 107° East 530 610 41,000  Level Albuquerque Center
Wed 02:39:47 AM 31.9344 -106.3064 101° East 515 593 41,000  Level Houston Center
Wed 02:40:00 AM 31.9566 -106.7676 110° East  Level FlightAware Approximate
Wed 02:40:47 AM 31.9081 -106.1425 101° East 515 593 41,000  Level Houston Center
Wed 02:41:00 AM 31.9457 -106.6140 95° East  Level FlightAware Approximate
Wed 02:41:47 AM 31.8831 -105.9794 100° East 512 589 41,000  Level Houston Center
Wed 02:42:00 AM 31.9346 -106.4604 95° East  Level FlightAware Approximate
Wed 02:42:48 AM 31.8603 -105.8158 99° East 512 589 41,000  Level Houston Center
Wed 02:43:00 AM 31.9234 -106.3068 95° East  Level FlightAware Approximate
Wed 02:43:48 AM 31.8356 -105.6522 100° East 511 588 41,000  Level Houston Center
Wed 02:44:00 AM 31.9058 -106.1505 101° East  Level FlightAware Approximate
Wed 02:44:48 AM 31.8078 -105.4908 101° East 511 588 41,000  Level Houston Center
Wed 02:45:00 AM 31.8808 -105.9992 101° East  Level FlightAware Approximate
Wed 02:45:48 AM 31.7792 -105.3281 102° East 511 588 41,000  Level Houston Center
Wed 02:46:48 AM 31.7539 -105.1653 100° East 511 588 41,000  Level Houston Center
Wed 02:47:48 AM 31.7269 -105.0014 101° East 511 588 41,000  Level Houston Center
Wed 02:48:49 AM 31.7000 -104.8367 101° East 511 588 41,000  Level Houston Center
Wed 02:49:49 AM 31.6736 -104.6731 101° East 511 588 41,000  Level Houston Center
Wed 02:50:49 AM 31.6461 -104.5094 101° East 512 589 41,000  Level Houston Center
Wed 02:51:49 AM 31.6208 -104.3464 100° East 512 589 41,000  Level Houston Center
Wed 02:52:49 AM 31.5919 -104.1847 102° East 510 587 41,000  Level Houston Center
Wed 02:53:49 AM 31.5647 -104.0233 101° East 509 586 41,000  Level Houston Center
Wed 02:54:50 AM 31.5356 -103.8628 102° East 508 585 41,000  Level Houston Center
Wed 02:55:50 AM 31.5086 -103.7028 101° East 504 580 41,000  Level Houston Center
Wed 02:56:50 AM 31.4792 -103.5444 102° East 503 579 41,000  Level Houston Center
Wed 02:57:50 AM 31.4525 -103.3847 101° East 501 577 41,000  Level Houston Center
Wed 02:58:50 AM 31.4233 -103.2256 102° East 501 577 41,000  Level Houston Center
Wed 02:59:50 AM 31.3956 -103.0667 102° East 501 577 41,000  Level Houston Center
Wed 03:00:50 AM 31.3656 -102.9083 102° East 501 577 41,000  Level Houston Center
Wed 03:01:51 AM 31.3367 -102.7522 102° East 498 573 41,000  Level Houston Center
Wed 03:02:51 AM 31.3081 -102.5953 102° East 497 572 41,000  Level Houston Center
Wed 03:03:51 AM 31.2789 -102.4394 102° East 497 572 41,000  Level Houston Center
Wed 03:04:51 AM 31.2444 -102.2594 103° East 497 572 41,000  Level Houston Center
Wed 03:05:51 AM 31.2181 -102.1047 101° East 498 573 41,000  Level Houston Center
Wed 03:06:51 AM 31.1878 -101.9486 103° East 498 573 41,000  Level Houston Center
Wed 03:07:52 AM 31.1572 -101.7931 103° East 497 572 41,000  Level Houston Center
Wed 03:08:52 AM 31.1275 -101.6375 103° East 496 571 41,000  Level Houston Center
Wed 03:09:52 AM 31.0967 -101.4831 103° East 494 568 41,000  Level Houston Center
Wed 03:10:52 AM 31.0647 -101.3219 103° East 490 564 41,000  Level Houston Center
Wed 03:11:52 AM 31.0344 -101.1639 103° East 494 568 41,000  Level Houston Center
Wed 03:12:52 AM 31.0036 -101.0089 103° East 494 568 41,000  Level Houston Center
Wed 03:13:52 AM 30.9717 -100.8528 103° East 494 568 41,000  Level Houston Center
Wed 03:14:53 AM 30.9414 -100.6961 103° East 495 570 41,000  Level Houston Center
Wed 03:15:53 AM 30.9097 -100.5394 103° East 495 570 41,000  Level Houston Center
Wed 03:16:53 AM 30.8769 -100.3825 104° East 495 570 41,000  Level Houston Center
Wed 03:17:53 AM 30.8442 -100.2258 104° East 496 571 41,000  Level Houston Center
Wed 03:18:53 AM 30.8125 -100.0678 103° East 497 572 41,000 -400 Level Houston Center
Wed 03:19:53 AM 30.7800 -99.9108 104° East 497 572 40,200 -1,650 Descending Houston Center
Wed 03:20:53 AM 30.7472 -99.7569 104° East 492 566 37,700 -2,727 Descending Houston Center
Wed 03:21:54 AM 30.7133 -99.6039 104° East 489 563 34,700 -3,025 Descending Houston Center
Wed 03:22:54 AM 30.6831 -99.4583 104° East 470 541 31,600 -2,900 Descending Houston Center
Wed 03:23:54 AM 30.6528 -99.3128 104° East 467 537 28,900 -2,600 Descending Houston Center
Wed 03:24:54 AM 30.6231 -99.1733 104° East 450 518 26,400 -2,450 Descending Houston Center
Wed 03:25:54 AM 30.5919 -99.0367 105° East 435 501 24,000 -2,400 Descending Houston Center
Wed 03:26:54 AM 30.5644 -98.9064 104° East 426 490 21,600 -2,281 Descending Houston Center
Wed 03:27:55 AM 30.5389 -98.7803 103° East 411 473 19,400 -2,083 Descending Houston Center
Wed 03:28:55 AM 30.5114 -98.6597 105° East 392 451 17,400 -2,200 Descending Houston Center
Wed 03:29:55 AM 30.4858 -98.5417 104° East 381 438 15,000 -2,400 Descending Houston Center
Wed 03:30:55 AM 30.4589 -98.4253 105° East 380 437 12,600 -2,300 Descending Houston Center
Wed 03:31:55 AM 30.4339 -98.3128 104° East 368 423 10,400 -1,550 Descending Houston Center
Wed 03:32:55 AM 30.4114 -98.2092 104° East 343 395 9,500 -1,091 Descending Houston Center
Wed 03:33:56 AM 30.3911 -98.1161 104° East 308 354 8,200 -1,388 Descending Houston Center
Wed 03:34:56 AM 30.3708 -98.0264 105° East 295 339 6,700 -1,450 Descending Houston Center
Wed 03:35:56 AM 30.3514 -97.9419 105° East 281 323 5,300 -1,250 Descending Houston Center
Wed 03:36:56 AM 30.3325 -97.8636 106° East 264 304 4,200 -1,150 Descending Houston Center
Wed 03:37:56 AM 30.3167 -97.7881 104° East 251 289 3,000 -700 Descending Houston Center
Wed 03:38:56 AM 30.3011 -97.7214 105° East 229 264 2,800 -545 Descending Houston Center
Wed 03:39:57 AM 30.2828 -97.6811 118° Southeast 183 211 1,900 -744 Descending Houston Center
Wed 03:40:57 AM 30.2494 -97.6797 178° South 142 163 1,300 -550 Descending Houston Center
Wed 03:41:57 AM 30.2214 -97.6800 180° South 118 136 800 -500 Descending Houston Center
Wed 03:43:00 AM 30.1945 -97.6699 120° Southeast  Level Estimated
Wed 03:50:00 AM 30.1945 -97.6699 North  Level Estimated

Login

Don't have an account? Register now (free) for customized features, flight alerts, and more!